Time;durP1;ratioP1;P1;durP2;ratioP2;P2;SDS_P1;SDS_P2;PMS_P1;PMS_P2;Temp;Humidity;BMP_temperature;BMP_pressure;BME280_temperature;BME280_humidity;BME280_pressure;Samples;Min_cycle;Max_cycle;Signal;HPM_P1;HPM_P2
2023/02/28 00:00:46;;;;;;;9.45;4.18;;;3.20;71.00;;;;;;9179507;19;20042;-64
2023/02/28 00:03:52;;;;;;;9.77;4.13;;;3.20;71.00;;;;;;9180657;19;20018;-63
2023/02/28 00:06:56;;;;;;;10.77;3.88;;;3.30;71.10;;;;;;9179545;19;20114;-65
2023/02/28 00:10:03;;;;;;;8.40;3.95;;;3.30;71.10;;;;;;9177873;19;20014;-63
2023/02/28 00:13:09;;;;;;;7.95;3.65;;;3.30;71.10;;;;;;9174824;19;20102;-63
2023/02/28 00:16:17;;;;;;;10.02;4.07;;;3.30;71.20;;;;;;9174198;19;20498;-63
2023/02/28 00:19:22;;;;;;;10.27;4.35;;;3.40;71.30;;;;;;9166217;19;20018;-62
2023/02/28 00:22:28;;;;;;;6.75;3.33;;;3.40;71.20;;;;;;9172969;19;20014;-63
2023/02/28 00:25:32;;;;;;;8.50;3.22;;;3.40;71.30;;;;;;9177154;19;20014;-63
2023/02/28 00:28:40;;;;;;;8.73;3.92;;;3.40;71.20;;;;;;9179159;19;20582;-63
2023/02/28 00:31:43;;;;;;;8.00;3.45;;;3.40;71.30;;;;;;9180787;19;20371;-64
2023/02/28 00:34:50;;;;;;;10.98;3.40;;;3.50;71.40;;;;;;9179784;19;20010;-63
2023/02/28 00:37:54;;;;;;;7.05;2.80;;;3.50;71.30;;;;;;9177874;19;20094;-64
2023/02/28 00:41:04;;;;;;;5.75;2.88;;;3.50;71.30;;;;;;9180616;19;20022;-63
2023/02/28 00:44:10;;;;;;;5.13;2.63;;;3.50;71.40;;;;;;9179541;19;20370;-63
2023/02/28 00:47:16;;;;;;;5.97;3.03;;;3.50;71.40;;;;;;9180891;19;20018;-63
2023/02/28 00:50:20;;;;;;;8.90;3.13;;;3.50;71.40;;;;;;9180818;19;20011;-63
2023/02/28 00:53:27;;;;;;;8.20;3.30;;;3.60;71.40;;;;;;9180861;19;20491;-63
2023/02/28 00:56:31;;;;;;;5.82;2.58;;;3.60;71.50;;;;;;9178960;19;20010;-63
2023/02/28 00:59:39;;;;;;;5.45;2.92;;;3.60;71.40;;;;;;9175425;19;20022;-63
2023/02/28 01:02:43;;;;;;;8.60;3.17;;;3.60;71.50;;;;;;9173876;19;20010;-63
2023/02/28 01:05:49;;;;;;;5.07;3.17;;;3.60;71.40;;;;;;9178837;19;20022;-64
2023/02/28 01:08:53;;;;;;;9.27;3.45;;;3.70;71.50;;;;;;9176227;19;20026;-63
2023/02/28 01:11:59;;;;;;;10.07;3.30;;;3.60;71.40;;;;;;9178167;19;20019;-64
2023/02/28 01:15:06;;;;;;;5.93;3.00;;;3.70;71.50;;;;;;9181203;19;20885;-64
2023/02/28 01:18:12;;;;;;;7.50;3.85;;;3.70;71.60;;;;;;9176008;19;20021;-64
2023/02/28 01:21:19;;;;;;;10.55;3.28;;;3.70;71.50;;;;;;9174209;19;20022;-64
2023/02/28 01:24:25;;;;;;;12.57;3.03;;;3.70;71.60;;;;;;9179486;19;20018;-64
2023/02/28 01:27:29;;;;;;;6.07;2.92;;;3.70;71.60;;;;;;9179600;19;20047;-64
2023/02/28 01:30:37;;;;;;;6.15;3.38;;;3.70;71.60;;;;;;9177358;19;20353;-64
2023/02/28 01:33:41;;;;;;;10.68;3.50;;;3.70;71.60;;;;;;9178024;19;20085;-64
2023/02/28 01:36:47;;;;;;;7.85;3.50;;;3.70;71.60;;;;;;9179675;19;20558;-63
2023/02/28 01:39:51;;;;;;;6.53;3.15;;;3.70;71.60;;;;;;9177623;19;20018;-64
2023/02/28 01:42:59;;;;;;;8.95;3.28;;;3.70;71.60;;;;;;9177099;19;20025;-63
2023/02/28 01:46:05;;;;;;;9.48;3.22;;;3.80;71.60;;;;;;9177505;19;20018;-64
2023/02/28 01:49:15;;;;;;;7.68;3.40;;;3.80;71.70;;;;;;9175474;19;20613;-64
2023/02/28 01:52:19;;;;;;;7.35;3.10;;;3.80;71.70;;;;;;9168387;19;20031;-63
2023/02/28 01:55:28;;;;;;;9.65;2.80;;;3.80;72.30;;;;;;9170872;19;20025;-64
2023/02/28 01:58:36;;;;;;;4.03;2.78;;;3.80;71.70;;;;;;9172166;19;20469;-64
2023/02/28 02:01:44;;;;;;;4.15;2.75;;;3.80;71.70;;;;;;9176437;19;20022;-63
2023/02/28 02:04:55;;;;;;;6.45;3.17;;;3.80;71.70;;;;;;9175886;19;20066;-64
2023/02/28 02:08:06;;;;;;;10.65;3.33;;;3.90;71.70;;;;;;9172537;19;20017;-64
2023/02/28 02:11:12;;;;;;;3.70;3.08;;;3.90;71.80;;;;;;9177356;19;20022;-63
2023/02/28 02:14:45;;;;;;;10.30;3.28;;;3.90;71.70;;;;;;9176966;19;20021;-64
2023/02/28 02:17:57;;;;;;;7.22;3.67;;;3.90;71.80;;;;;;9174510;19;20014;-64
2023/02/28 02:21:26;;;;;;;4.88;3.03;;;3.90;71.80;;;;;;9168540;19;20010;-64
2023/02/28 02:25:08;;;;;;;7.55;3.65;;;3.90;71.80;;;;;;9175902;19;20028;-64
2023/02/28 02:28:53;;;;;;;12.60;3.53;;;3.90;71.90;;;;;;9175464;19;20118;-64
2023/02/28 02:32:28;;;;;;;10.23;3.58;;;3.90;71.80;;;;;;9175655;19;20011;-63
2023/02/28 02:35:42;;;;;;;9.65;3.90;;;3.90;71.80;;;;;;9176140;19;20038;-64
2023/02/28 02:38:52;;;;;;;12.73;3.85;;;3.90;71.80;;;;;;9172436;19;20022;-64
2023/02/28 02:42:03;;;;;;;12.02;4.47;;;3.90;71.80;;;;;;9176880;19;20006;-63
2023/02/28 02:45:14;;;;;;;8.20;4.07;;;3.90;71.90;;;;;;9179488;19;20108;-64
2023/02/28 02:48:22;;;;;;;8.80;4.13;;;3.90;71.90;;;;;;9184950;19;20336;-64
2023/02/28 02:51:30;;;;;;;11.50;3.67;;;3.90;71.90;;;;;;9184417;19;20066;-63
2023/02/28 02:54:39;;;;;;;7.50;3.95;;;3.90;71.90;;;;;;9180469;19;20015;-63
2023/02/28 02:57:48;;;;;;;6.78;4.13;;;3.90;71.90;;;;;;9184025;19;20325;-63
2023/02/28 03:00:59;;;;;;;9.40;4.70;;;3.90;71.90;;;;;;9184114;19;20011;-64
2023/02/28 03:04:08;;;;;;;9.25;3.80;;;3.90;71.90;;;;;;9184309;19;20014;-64
2023/02/28 03:07:16;;;;;;;8.10;3.58;;;3.90;72.00;;;;;;9184336;19;20017;-63
2023/02/28 03:10:36;;;;;;;9.55;4.03;;;3.90;71.90;;;;;;9183454;19;20498;-63
2023/02/28 03:14:09;;;;;;;8.57;4.50;;;3.90;72.00;;;;;;9183881;19;20482;-64
2023/02/28 03:17:42;;;;;;;12.07;4.78;;;3.90;72.00;;;;;;9182331;19;20094;-64
2023/02/28 03:20:59;;;;;;;8.90;5.00;;;3.90;72.00;;;;;;9178643;19;20021;-64
2023/02/28 03:24:10;;;;;;;10.48;4.38;;;3.90;72.00;;;;;;9182468;19;20035;-64
2023/02/28 03:27:23;;;;;;;8.70;3.85;;;3.90;72.00;;;;;;9181534;19;20020;-64
2023/02/28 03:30:35;;;;;;;9.40;3.95;;;3.90;72.00;;;;;;9181517;19;20017;-64
2023/02/28 03:33:46;;;;;;;10.02;4.28;;;4.00;72.00;;;;;;9183660;19;20022;-64
2023/02/28 03:36:57;;;;;;;9.00;4.25;;;3.90;72.00;;;;;;9182963;19;20006;-64
2023/02/28 03:40:12;;;;;;;15.82;4.88;;;3.90;72.00;;;;;;9178635;19;20038;-64
2023/02/28 03:43:22;;;;;;;6.20;3.17;;;3.90;72.00;;;;;;9181874;19;20006;-64
2023/02/28 03:46:33;;;;;;;14.27;4.80;;;3.90;72.00;;;;;;9181165;19;20498;-64
2023/02/28 03:49:44;;;;;;;11.05;4.22;;;3.90;72.00;;;;;;9180860;19;20078;-64
2023/02/28 03:52:54;;;;;;;7.63;4.40;;;4.00;72.10;;;;;;9181651;19;20015;-64
2023/02/28 03:56:08;;;;;;;14.52;4.55;;;4.00;72.10;;;;;;9180632;19;20502;-64
2023/02/28 03:59:18;;;;;;;9.00;4.00;;;3.90;72.10;;;;;;9180545;19;20487;-64
2023/02/28 04:02:22;;;;;;;9.73;4.47;;;3.90;72.10;;;;;;9181367;19;20041;-64
2023/02/28 04:05:29;;;;;;;7.90;4.18;;;3.90;72.10;;;;;;9182019;19;20007;-64
2023/02/28 04:08:33;;;;;;;10.07;4.32;;;3.90;72.10;;;;;;9179522;19;20385;-64
2023/02/28 04:11:43;;;;;;;8.18;4.55;;;3.90;72.10;;;;;;9180781;19;20021;-64
2023/02/28 04:14:47;;;;;;;14.55;4.93;;;3.90;72.10;;;;;;9182220;19;20025;-64
2023/02/28 04:17:53;;;;;;;8.50;4.07;;;3.90;72.20;;;;;;9179711;19;20014;-64
2023/02/28 04:20:57;;;;;;;7.72;3.95;;;3.90;72.20;;;;;;9176763;19;20018;-64
2023/02/28 04:24:03;;;;;;;8.82;4.53;;;3.90;72.20;;;;;;9180387;19;20018;-64
2023/02/28 04:27:10;;;;;;;7.55;4.47;;;3.90;72.20;;;;;;9181782;19;20011;-64
2023/02/28 04:30:16;;;;;;;9.32;4.57;;;3.90;72.20;;;;;;9179418;19;20013;-64
2023/02/28 04:33:21;;;;;;;9.20;4.35;;;3.90;72.20;;;;;;9181118;19;20014;-64
2023/02/28 04:36:27;;;;;;;12.93;4.57;;;3.90;72.20;;;;;;9180758;19;20010;-64
2023/02/28 04:39:31;;;;;;;9.07;4.45;;;3.90;72.20;;;;;;9179061;19;20081;-64
2023/02/28 04:42:39;;;;;;;8.25;4.47;;;3.90;72.20;;;;;;9180713;19;20019;-64
2023/02/28 04:45:43;;;;;;;9.15;4.03;;;3.90;72.20;;;;;;9178161;19;20067;-64
2023/02/28 04:48:49;;;;;;;10.77;4.65;;;3.90;72.20;;;;;;9179636;19;20014;-64
2023/02/28 04:51:53;;;;;;;11.32;4.30;;;3.90;72.30;;;;;;9178834;19;20010;-64
2023/02/28 04:54:59;;;;;;;9.50;4.57;;;3.90;72.20;;;;;;9179116;19;20014;-64
2023/02/28 04:58:06;;;;;;;7.85;4.10;;;3.90;72.20;;;;;;9179191;19;20014;-64
2023/02/28 05:01:22;;;;;;;8.10;4.32;;;3.90;72.20;;;;;;9178653;19;20029;-64
2023/02/28 05:04:26;;;;;;;7.53;4.28;;;3.90;72.90;;;;;;9178953;19;20351;-64
2023/02/28 05:07:32;;;;;;;13.18;4.63;;;3.90;72.20;;;;;;9178763;19;20379;-64
2023/02/28 05:10:36;;;;;;;7.15;4.28;;;3.90;72.30;;;;;;9178231;19;20015;-64
2023/02/28 05:13:44;;;;;;;17.17;4.30;;;3.80;72.20;;;;;;9180527;19;20014;-64
2023/02/28 05:16:48;;;;;;;9.73;4.43;;;3.90;72.30;;;;;;9180150;19;20018;-64
2023/02/28 05:19:54;;;;;;;6.78;4.35;;;3.90;72.20;;;;;;9171980;19;20006;-64
2023/02/28 05:23:12;;;;;;;10.68;4.25;;;3.80;72.20;;;;;;9180226;19;20014;-64
2023/02/28 05:26:18;;;;;;;7.45;4.82;;;3.80;72.20;;;;;;9179660;19;20021;-64
2023/02/28 05:29:24;;;;;;;11.18;4.60;;;3.80;72.20;;;;;;9178568;19;20026;-64
2023/02/28 05:32:30;;;;;;;13.65;3.88;;;3.80;72.20;;;;;;9177803;19;20021;-63
2023/02/28 05:35:34;;;;;;;9.77;4.38;;;3.80;72.20;;;;;;9178200;19;20018;-63
2023/02/28 05:38:40;;;;;;;9.40;4.13;;;3.70;72.20;;;;;;9175988;19;20479;-64
2023/02/28 05:41:45;;;;;;;8.27;4.18;;;3.70;72.20;;;;;;9175742;19;20130;-64
2023/02/28 05:44:53;;;;;;;10.15;3.97;;;3.70;72.30;;;;;;9177536;19;20011;-64
2023/02/28 05:47:58;;;;;;;6.90;3.80;;;3.70;72.30;;;;;;9179241;19;20018;-64
2023/02/28 05:51:05;;;;;;;11.35;4.75;;;3.70;72.30;;;;;;9178873;19;20373;-64
2023/02/28 05:54:09;;;;;;;10.15;3.80;;;3.70;72.30;;;;;;9177446;19;20018;-64
2023/02/28 05:57:17;;;;;;;7.25;4.25;;;3.70;72.40;;;;;;9177238;19;20015;-64
2023/02/28 06:00:30;;;;;;;16.10;5.63;;;3.60;72.30;;;;;;9173038;19;20402;-64
2023/02/28 06:03:36;;;;;;;11.35;4.75;;;3.60;72.30;;;;;;9177070;19;20018;-64
2023/02/28 06:06:40;;;;;;;6.88;3.60;;;3.70;72.40;;;;;;9178125;19;20104;-64
2023/02/28 06:09:46;;;;;;;9.32;5.00;;;3.60;72.40;;;;;;9173095;19;20022;-64
2023/02/28 06:12:50;;;;;;;10.63;4.65;;;3.60;72.40;;;;;;9176661;19;20011;-64
2023/02/28 06:15:58;;;;;;;7.88;4.68;;;3.60;72.40;;;;;;9178203;19;20018;-64
2023/02/28 06:19:05;;;;;;;9.57;4.32;;;3.60;72.40;;;;;;9169232;19;20038;-64
2023/02/28 06:22:10;;;;;;;15.02;4.72;;;3.60;72.40;;;;;;9177669;19;20011;-64
2023/02/28 06:25:14;;;;;;;7.28;4.50;;;3.60;72.40;;;;;;9176151;19;20090;-64
2023/02/28 06:28:21;;;;;;;7.70;4.40;;;3.60;72.50;;;;;;9175151;19;20026;-64
2023/02/28 06:31:28;;;;;;;8.65;4.55;;;3.50;72.50;;;;;;9175782;19;20011;-64
2023/02/28 06:34:35;;;;;;;14.57;4.50;;;3.50;73.10;;;;;;9177185;19;20022;-64
2023/02/28 06:37:39;;;;;;;10.65;4.57;;;3.50;72.50;;;;;;9173494;19;20014;-64
2023/02/28 06:40:54;;;;;;;11.80;4.68;;;3.50;72.50;;;;;;9175433;19;20006;-64
2023/02/28 06:43:58;;;;;;;14.48;4.57;;;3.50;72.50;;;;;;9174933;19;20030;-64
2023/02/28 06:47:07;;;;;;;6.75;4.25;;;3.50;72.60;;;;;;9176131;19;20015;-64
2023/02/28 06:50:13;;;;;;;12.35;4.97;;;3.50;72.60;;;;;;9170761;19;20034;-64
2023/02/28 06:53:20;;;;;;;10.77;5.47;;;3.50;72.60;;;;;;9173702;19;20055;-64
2023/02/28 06:56:24;;;;;;;9.00;4.60;;;3.50;72.60;;;;;;9174241;19;20040;-64
2023/02/28 06:59:30;;;;;;;16.80;5.00;;;3.50;72.60;;;;;;9172150;19;20014;-64
2023/02/28 07:02:37;;;;;;;9.98;4.50;;;3.40;72.60;;;;;;9173647;19;20369;-64
2023/02/28 07:05:43;;;;;;;11.80;4.95;;;3.50;72.70;;;;;;9174194;19;20021;-64
2023/02/28 07:08:47;;;;;;;12.45;5.55;;;3.50;72.70;;;;;;9171098;19;20014;-64
2023/02/28 07:11:53;;;;;;;9.27;5.15;;;3.50;72.70;;;;;;9175012;19;20019;-64
2023/02/28 07:14:57;;;;;;;7.93;4.85;;;3.50;72.70;;;;;;9174052;19;20077;-64
2023/02/28 07:18:06;;;;;;;11.38;5.00;;;3.50;72.80;;;;;;9174725;19;20017;-64
2023/02/28 07:21:11;;;;;;;10.88;5.03;;;3.50;72.80;;;;;;9170425;19;20105;-64
2023/02/28 07:24:18;;;;;;;12.40;4.63;;;3.50;72.70;;;;;;9173116;19;20496;-64
2023/02/28 07:27:25;;;;;;;12.30;5.40;;;3.50;72.70;;;;;;9171389;19;20621;-64
2023/02/28 07:30:31;;;;;;;9.93;4.85;;;3.50;72.80;;;;;;9172568;19;20011;-64
2023/02/28 07:33:37;;;;;;;;;;;3.50;72.80;;;;;;9181611;19;20340;-64
2023/02/28 07:36:43;;;;;;;7.82;4.65;;;3.50;72.80;;;;;;9182106;19;19930;-64
2023/02/28 07:39:46;;;;;;;10.07;5.35;;;3.60;72.80;;;;;;9182255;19;20022;-64
2023/02/28 07:42:53;;;;;;;9.93;4.38;;;3.60;72.90;;;;;;9182553;19;20010;-64
2023/02/28 07:45:57;;;;;;;15.05;4.22;;;3.60;73.00;;;;;;9183034;19;20011;-64
2023/02/28 07:49:05;;;;;;;8.07;4.15;;;3.70;73.10;;;;;;9181243;19;20022;-65
2023/02/28 07:52:09;;;;;;;7.70;3.33;;;3.80;73.20;;;;;;9181175;19;20010;-64
2023/02/28 07:55:18;;;;;;;8.20;3.10;;;4.00;73.30;;;;;;9171059;19;20010;-64
2023/02/28 07:58:22;;;;;;;7.75;2.30;;;4.10;73.40;;;;;;9173088;19;20625;-64
2023/02/28 08:01:28;;;;;;;3.60;2.40;;;4.20;73.30;;;;;;9174321;19;20522;-65
2023/02/28 08:04:36;;;;;;;4.03;2.83;;;4.40;73.20;;;;;;9173663;19;20482;-65
2023/02/28 08:07:42;;;;;;;5.65;2.53;;;4.50;73.10;;;;;;9172924;19;20113;-65
2023/02/28 08:10:45;;;;;;;;;;;4.70;73.10;;;;;;9173089;19;20019;-65
2023/02/28 08:13:52;;;;;;;3.35;1.80;;;4.90;73.00;;;;;;9170792;19;20364;-65
2023/02/28 08:16:56;;;;;;;3.72;1.30;;;5.10;73.00;;;;;;9172368;19;20018;-65
2023/02/28 08:20:04;;;;;;;4.05;1.55;;;5.20;72.80;;;;;;9164290;19;20017;-65
2023/02/28 08:23:08;;;;;;;5.28;1.70;;;5.40;72.60;;;;;;9170938;19;20010;-64
2023/02/28 08:26:14;;;;;;;7.25;2.28;;;5.60;72.50;;;;;;9172085;19;20026;-64
2023/02/28 08:29:18;;;;;;;3.65;2.05;;;5.80;72.30;;;;;;9173031;19;20862;-64
2023/02/28 08:32:24;;;;;;;3.05;1.45;;;6.00;72.20;;;;;;9176200;19;20013;-64
2023/02/28 08:35:37;;;;;;;3.78;1.60;;;6.20;71.90;;;;;;9179217;19;20475;-64
2023/02/28 08:38:44;;;;;;;5.00;1.27;;;6.40;71.60;;;;;;9177937;19;20018;-64
2023/02/28 08:41:48;;;;;;;10.95;1.55;;;6.50;71.30;;;;;;9179532;19;20014;-63
2023/02/28 08:45:04;;;;;;;5.22;1.50;;;6.60;71.10;;;;;;9171149;19;20368;-64
2023/02/28 08:48:08;;;;;;;1.70;1.30;;;6.70;71.00;;;;;;9171647;19;20023;-64
2023/02/28 08:51:21;;;;;;;2.90;1.23;;;6.80;70.80;;;;;;9175084;19;20007;-66
2023/02/28 08:54:26;;;;;;;4.25;1.48;;;7.00;70.70;;;;;;9178740;19;20034;-63
2023/02/28 08:57:32;;;;;;;4.32;1.60;;;7.10;70.60;;;;;;9176139;19;20015;-64
2023/02/28 09:00:36;;;;;;;1.30;1.02;;;7.30;70.50;;;;;;9167109;19;20014;-65
2023/02/28 09:03:43;;;;;;;2.40;1.20;;;7.40;70.30;;;;;;9171451;19;20018;-65
2023/02/28 09:06:50;;;;;;;2.50;1.27;;;7.50;70.00;;;;;;9171527;19;20475;-65
2023/02/28 09:09:57;;;;;;;4.07;1.27;;;7.60;69.80;;;;;;9170730;19;20014;-65
2023/02/28 09:13:01;;;;;;;1.65;1.25;;;7.70;69.70;;;;;;9176397;19;20025;-65
2023/02/28 09:16:10;;;;;;;1.88;1.00;;;7.90;69.60;;;;;;9174982;19;20018;-65
2023/02/28 09:19:14;;;;;;;1.33;1.23;;;8.00;69.30;;;;;;9165244;19;20033;-64
2023/02/28 09:22:22;;;;;;;1.67;1.23;;;8.00;69.00;;;;;;9171890;19;20029;-65
2023/02/28 09:25:26;;;;;;;3.45;1.50;;;8.10;68.90;;;;;;9172301;19;20957;-66
2023/02/28 09:28:32;;;;;;;1.25;1.00;;;8.10;68.70;;;;;;9169125;19;20752;-65
2023/02/28 09:31:36;;;;;;;0.98;0.90;;;8.20;68.60;;;;;;9165435;19;20393;-65
2023/02/28 09:34:42;;;;;;;2.20;1.73;;;8.30;68.50;;;;;;9164906;19;20022;-65
2023/02/28 09:37:48;;;;;;;;;;;8.40;68.30;;;;;;9169723;19;20511;-65
2023/02/28 09:41:00;;;;;;;1.52;1.00;;;8.40;68.20;;;;;;9164571;19;19919;-65
2023/02/28 09:44:08;;;;;;;3.05;1.00;;;8.50;68.30;;;;;;9169061;19;20026;-65
2023/02/28 09:47:26;;;;;;;1.20;1.10;;;8.50;68.00;;;;;;9167898;19;20082;-64
2023/02/28 09:50:36;;;;;;;1.45;0.80;;;8.50;67.60;;;;;;9170066;19;20527;-65
2023/02/28 09:53:44;;;;;;;3.35;1.13;;;8.60;67.70;;;;;;9172539;19;20018;-65
2023/02/28 09:56:59;;;;;;;1.17;0.90;;;8.60;67.60;;;;;;9175726;19;20021;-65
2023/02/28 10:00:16;;;;;;;1.85;1.10;;;8.70;67.50;;;;;;9159972;19;20017;-66
2023/02/28 10:03:30;;;;;;;1.50;1.00;;;8.70;67.20;;;;;;9165363;19;20351;-65
2023/02/28 10:06:42;;;;;;;1.88;1.17;;;8.80;67.00;;;;;;9165877;19;20393;-66
2023/02/28 10:09:53;;;;;;;3.80;1.58;;;8.90;66.90;;;;;;9163722;19;20023;-66
2023/02/28 10:13:03;;;;;;;3.67;1.20;;;8.90;66.60;;;;;;9163679;19;20074;-66
2023/02/28 10:16:15;;;;;;;3.08;1.73;;;9.00;66.60;;;;;;9161998;19;20514;-66
2023/02/28 10:19:25;;;;;;;3.13;1.42;;;9.00;66.40;;;;;;9161061;19;20010;-65
2023/02/28 10:22:36;;;;;;;1.58;1.02;;;9.10;66.20;;;;;;9165730;19;20029;-65
2023/02/28 10:25:48;;;;;;;1.67;1.08;;;9.20;66.10;;;;;;9167047;19;20102;-65
2023/02/28 10:28:54;;;;;;;9.07;1.15;;;9.20;66.50;;;;;;9153100;19;20602;-65
2023/02/28 10:32:04;;;;;;;1.23;1.00;;;9.30;65.80;;;;;;9158582;19;20018;-65
2023/02/28 10:35:16;;;;;;;2.50;1.08;;;9.30;65.70;;;;;;9161681;19;20030;-66
2023/02/28 10:38:24;;;;;;;3.42;1.17;;;9.40;65.50;;;;;;9161546;19;20013;-65
2023/02/28 10:41:34;;;;;;;1.58;1.20;;;9.40;65.50;;;;;;9153316;19;20081;-66
2023/02/28 10:44:40;;;;;;;2.05;0.95;;;9.40;65.20;;;;;;9162023;19;20364;-65
2023/02/28 10:47:55;;;;;;;2.92;1.25;;;9.50;65.40;;;;;;9165853;19;20019;-66
2023/02/28 10:51:05;;;;;;;3.17;1.40;;;9.50;64.80;;;;;;9165087;19;20015;-65
2023/02/28 10:54:17;;;;;;;1.92;1.10;;;9.50;65.00;;;;;;9167467;19;20106;-65
2023/02/28 10:57:32;;;;;;;5.47;2.20;;;9.40;64.60;;;;;;9165492;19;20022;-66
2023/02/28 11:00:38;;;;;;;3.60;1.33;;;9.40;64.70;;;;;;9165193;19;20014;-66
2023/02/28 11:03:44;;;;;;;3.20;1.30;;;9.40;65.40;;;;;;9164541;19;20483;-65
2023/02/28 11:06:48;;;;;;;;;;;9.40;64.90;;;;;;9169492;19;20022;-66
2023/02/28 11:09:55;;;;;;;1.67;1.20;;;9.40;64.90;;;;;;9166393;19;19915;-65
2023/02/28 11:13:01;;;;;;;2.55;1.58;;;9.50;65.10;;;;;;9169174;19;20049;-66
2023/02/28 11:16:09;;;;;;;3.33;1.60;;;9.50;64.80;;;;;;9168855;19;20014;-65
2023/02/28 11:19:22;;;;;;;2.42;1.30;;;9.50;64.70;;;;;;9162030;19;20026;-64
2023/02/28 11:22:35;;;;;;;3.33;1.40;;;9.50;64.30;;;;;;9169997;19;20043;-65
2023/02/28 11:25:40;;;;;;;5.57;1.50;;;9.60;64.30;;;;;;9179265;19;20015;-66
2023/02/28 11:28:48;;;;;;;5.95;1.42;;;9.60;64.20;;;;;;9163103;19;20006;-65
2023/02/28 11:32:17;;;;;;;4.00;1.30;;;9.60;64.10;;;;;;9165688;19;20027;-65
2023/02/28 11:35:30;;;;;;;2.88;1.25;;;9.60;63.60;;;;;;9171166;19;20140;-64
2023/02/28 11:38:37;;;;;;;2.60;1.35;;;9.60;63.90;;;;;;9170306;19;20019;-64
2023/02/28 11:42:01;;;;;;;2.22;1.17;;;9.60;63.80;;;;;;9175545;19;20018;-64
2023/02/28 11:45:23;;;;;;;2.00;1.00;;;9.70;63.60;;;;;;9172738;19;20037;-62
2023/02/28 11:48:36;;;;;;;2.20;1.25;;;9.70;63.50;;;;;;9173682;19;20629;-62
2023/02/28 11:51:49;;;;;;;2.13;1.30;;;9.70;63.70;;;;;;9172114;19;20029;-62
2023/02/28 11:55:05;;;;;;;;;;;9.70;63.50;;;;;;9173117;19;20026;-62
2023/02/28 11:58:26;;;;;;;2.95;1.50;;;9.70;63.80;;;;;;9172227;19;19919;-62
2023/02/28 12:02:03;;;;;;;1.40;1.17;;;9.80;63.80;;;;;;9170562;19;20016;-62
2023/02/28 12:05:22;;;;;;;2.15;1.30;;;9.70;63.30;;;;;;9173364;19;20616;-62
2023/02/28 12:08:41;;;;;;;2.47;1.27;;;9.80;64.20;;;;;;9172594;19;20015;-62
2023/02/28 12:11:53;;;;;;;2.00;1.20;;;9.90;63.50;;;;;;9172424;19;20405;-62
2023/02/28 12:15:25;;;;;;;3.33;1.33;;;10.00;63.30;;;;;;9175273;19;20010;-63
2023/02/28 12:18:51;;;;;;;1.55;1.35;;;10.00;63.40;;;;;;9172157;19;20368;-63
2023/02/28 12:22:22;;;;;;;1.65;1.30;;;10.00;62.80;;;;;;9179183;19;20362;-62
2023/02/28 12:25:50;;;;;;;1.42;1.20;;;10.00;62.60;;;;;;9179621;19;20007;-62
2023/02/28 12:29:01;;;;;;;1.65;1.10;;;10.00;62.50;;;;;;9177522;19;20018;-62
2023/02/28 12:32:10;;;;;;;2.75;1.05;;;10.10;62.70;;;;;;9179122;19;20018;-62
2023/02/28 12:35:23;;;;;;;3.28;1.42;;;10.10;62.60;;;;;;9179031;19;20364;-62
2023/02/28 12:38:31;;;;;;;1.98;1.10;;;10.00;62.30;;;;;;9175854;19;20010;-62
2023/02/28 12:41:43;;;;;;;3.15;1.45;;;10.00;62.30;;;;;;9174590;19;20014;-62
2023/02/28 12:44:51;;;;;;;2.47;1.25;;;10.00;62.20;;;;;;9177105;19;20022;-61
2023/02/28 12:48:02;;;;;;;2.58;1.50;;;10.00;62.20;;;;;;9175480;19;20022;-62
2023/02/28 12:51:09;;;;;;;1.15;0.90;;;10.00;62.00;;;;;;9178562;19;20039;-62
2023/02/28 12:54:24;;;;;;;1.20;1.10;;;10.00;62.00;;;;;;9177732;19;20022;-62
2023/02/28 12:57:37;;;;;;;2.58;1.17;;;10.00;61.70;;;;;;9175977;19;20025;-62
2023/02/28 13:00:58;;;;;;;1.88;1.10;;;10.00;61.70;;;;;;9172667;19;20507;-62
2023/02/28 13:04:28;;;;;;;4.13;1.30;;;9.90;61.50;;;;;;9178522;19;20025;-61
2023/02/28 13:08:10;;;;;;;1.10;1.00;;;9.90;61.20;;;;;;9175468;19;20022;-63
2023/02/28 13:11:27;;;;;;;1.65;1.30;;;9.80;61.10;;;;;;9176921;19;20094;-63
2023/02/28 13:14:39;;;;;;;2.97;1.75;;;9.80;61.20;;;;;;9177659;19;20010;-61
2023/02/28 13:17:43;;;;;;;2.80;1.20;;;9.70;61.20;;;;;;9176133;19;20047;-62
2023/02/28 13:20:51;;;;;;;3.83;1.10;;;9.60;61.30;;;;;;9169147;19;20014;-62
2023/02/28 13:24:02;;;;;;;1.40;1.00;;;9.50;61.20;;;;;;9176526;19;20047;-62
2023/02/28 13:27:26;;;;;;;1.58;1.30;;;9.40;60.90;;;;;;9175098;19;20046;-62
2023/02/28 13:31:02;;;;;;;3.03;1.33;;;9.30;60.80;;;;;;9171935;19;20353;-62
2023/02/28 13:34:18;;;;;;;2.50;1.40;;;9.10;60.70;;;;;;9176459;19;20018;-63
2023/02/28 13:37:38;;;;;;;2.15;1.20;;;9.00;61.60;;;;;;9175422;19;21697;-63
2023/02/28 13:40:48;;;;;;;1.10;0.88;;;8.90;60.90;;;;;;9171927;19;20014;-63
2023/02/28 13:44:06;;;;;;;1.52;1.20;;;8.70;61.10;;;;;;9174706;19;20015;-63
2023/02/28 13:47:29;;;;;;;4.82;2.35;;;8.60;60.90;;;;;;9173257;19;20362;-62
2023/02/28 13:50:38;;;;;;;4.55;1.52;;;8.60;61.00;;;;;;9174578;19;20015;-63
2023/02/28 13:54:03;;;;;;;1.42;1.27;;;8.50;61.10;;;;;;9174290;19;20014;-62
2023/02/28 13:57:21;;;;;;;3.97;2.03;;;8.40;60.80;;;;;;9176301;19;20390;-63
2023/02/28 14:00:45;;;;;;;2.95;1.50;;;8.40;61.00;;;;;;9172425;19;20418;-62
2023/02/28 14:04:05;;;;;;;3.35;1.80;;;8.30;60.90;;;;;;9174872;19;20014;-62
2023/02/28 14:07:18;;;;;;;3.30;1.42;;;8.30;60.90;;;;;;9165862;19;22100;-63
2023/02/28 14:10:30;;;;;;;1.60;1.13;;;8.20;61.10;;;;;;9169344;19;20566;-63
2023/02/28 14:13:46;;;;;;;2.28;1.40;;;8.20;60.90;;;;;;9169123;19;20011;-63
2023/02/28 14:16:52;;;;;;;3.30;1.65;;;8.20;60.90;;;;;;9168180;19;20015;-63
2023/02/28 14:20:00;;;;;;;2.45;1.40;;;8.10;61.10;;;;;;9156684;19;20018;-62
2023/02/28 14:23:11;;;;;;;3.78;1.98;;;8.00;60.90;;;;;;9165960;19;20023;-63
2023/02/28 14:26:32;;;;;;;1.30;1.13;;;8.00;60.70;;;;;;9169053;19;20026;-63
2023/02/28 14:30:09;;;;;;;2.30;1.33;;;8.00;60.80;;;;;;9173838;19;20018;-63
2023/02/28 14:33:55;;;;;;;1.50;1.20;;;7.90;60.60;;;;;;9171974;19;20493;-63
2023/02/28 14:37:03;;;;;;;2.08;1.45;;;7.90;60.60;;;;;;9173319;19;20045;-63
2023/02/28 14:40:16;;;;;;;2.47;1.20;;;7.90;61.00;;;;;;9171845;19;20478;-63
2023/02/28 14:43:23;;;;;;;1.55;1.23;;;7.90;60.80;;;;;;9182583;19;20016;-64
2023/02/28 14:46:36;;;;;;;1.83;1.48;;;7.90;60.80;;;;;;9180716;19;20480;-63
2023/02/28 14:49:46;;;;;;;4.65;2.22;;;7.90;60.80;;;;;;9180654;19;20010;-63
2023/02/28 14:52:55;;;;;;;1.90;1.33;;;7.90;60.60;;;;;;9181906;19;20014;-63
2023/02/28 14:56:00;;;;;;;2.28;1.30;;;7.90;60.70;;;;;;9179084;19;20014;-62
2023/02/28 14:59:07;;;;;;;17.30;4.57;;;7.90;60.70;;;;;;9176709;19;20010;-62
2023/02/28 15:02:23;;;;;;;2.15;1.35;;;7.90;60.60;;;;;;9175644;19;20027;-62
2023/02/28 15:05:33;;;;;;;2.60;1.30;;;7.80;60.30;;;;;;9173871;19;21632;-62
2023/02/28 15:08:37;;;;;;;2.47;1.73;;;7.90;60.50;;;;;;9171080;19;20014;-63
2023/02/28 15:11:46;;;;;;;2.70;1.45;;;7.80;60.40;;;;;;9172855;19;20011;-62
2023/02/28 15:14:50;;;;;;;1.40;1.27;;;7.80;61.00;;;;;;9175886;19;20014;-62
2023/02/28 15:18:00;;;;;;;2.25;1.42;;;7.80;60.40;;;;;;9179608;19;20007;-63
2023/02/28 15:21:09;;;;;;;2.15;1.52;;;7.90;60.40;;;;;;9175002;19;20607;-63
2023/02/28 15:24:23;;;;;;;2.53;1.50;;;7.80;60.20;;;;;;9180803;19;20052;-63
2023/02/28 15:27:32;;;;;;;2.50;1.30;;;7.80;60.30;;;;;;9181458;19;20022;-63
2023/02/28 15:30:38;;;;;;;1.77;1.30;;;7.80;60.30;;;;;;9179345;19;20017;-63
2023/02/28 15:33:54;;;;;;;1.73;1.25;;;7.80;60.20;;;;;;9180831;19;20054;-62
2023/02/28 15:37:03;;;;;;;1.73;1.42;;;7.80;60.00;;;;;;9179013;19;20010;-63
2023/02/28 15:40:15;;;;;;;4.15;1.40;;;7.80;60.20;;;;;;9177871;19;20009;-63
2023/02/28 15:43:27;;;;;;;2.58;1.40;;;7.80;60.10;;;;;;9179920;19;20494;-63
2023/02/28 15:46:31;;;;;;;4.85;1.42;;;7.80;60.00;;;;;;9179723;19;20010;-63
2023/02/28 15:49:46;;;;;;;4.00;1.38;;;7.80;60.10;;;;;;9175479;19;20006;-63
2023/02/28 15:52:52;;;;;;;2.30;1.50;;;7.70;60.00;;;;;;9168258;19;20158;-63
2023/02/28 15:56:03;;;;;;;4.00;1.45;;;7.70;60.00;;;;;;9173542;19;20021;-63
2023/02/28 15:59:09;;;;;;;1.63;1.40;;;7.70;60.00;;;;;;9171224;19;20090;-63
2023/02/28 16:02:20;;;;;;;1.38;1.17;;;7.70;60.10;;;;;;9167185;19;21303;-62
2023/02/28 16:05:31;;;;;;;4.53;1.48;;;7.60;60.10;;;;;;9173268;19;20014;-62
2023/02/28 16:08:42;;;;;;;5.15;1.20;;;7.60;60.10;;;;;;9166955;19;20021;-62
2023/02/28 16:11:48;;;;;;;1.45;1.25;;;7.60;60.10;;;;;;9168082;19;20429;-63
2023/02/28 16:14:56;;;;;;;2.60;1.40;;;7.60;60.10;;;;;;9169557;19;20019;-63
2023/02/28 16:18:00;;;;;;;4.55;1.33;;;7.60;60.10;;;;;;9166954;19;20534;-64
2023/02/28 16:21:06;;;;;;;4.45;1.80;;;7.50;60.10;;;;;;9158596;19;20014;-63
2023/02/28 16:24:14;;;;;;;3.97;1.70;;;7.50;60.10;;;;;;9165350;19;20047;-63
2023/02/28 16:27:24;;;;;;;8.32;1.67;;;7.40;60.00;;;;;;9162202;19;20006;-63
2023/02/28 16:30:31;;;;;;;3.83;1.60;;;7.40;60.00;;;;;;9163491;19;20026;-63
2023/02/28 16:33:37;;;;;;;2.15;1.50;;;7.40;60.00;;;;;;9164862;19;20502;-63
2023/02/28 16:36:41;;;;;;;3.95;1.60;;;7.30;60.00;;;;;;9162631;19;20435;-64
2023/02/28 16:39:50;;;;;;;3.15;1.80;;;7.30;60.00;;;;;;9167816;19;20010;-63